sensor_id;sensor_type;location;lat;lon;timestamp;P1;durP1;ratioP1;P2;durP2;ratioP2
4933;SDS011;2482;49.154;8.254;2023-05-20T00:00:44;3.50;;;1.90;;
4933;SDS011;2482;49.154;8.254;2023-05-20T00:03:17;3.67;;;2.20;;
4933;SDS011;2482;49.154;8.254;2023-05-20T00:05:48;1.93;;;1.80;;
4933;SDS011;2482;49.154;8.254;2023-05-20T00:08:17;4.80;;;2.23;;
4933;SDS011;2482;49.154;8.254;2023-05-20T00:10:44;2.40;;;1.70;;
4933;SDS011;2482;49.154;8.254;2023-05-20T00:13:11;3.10;;;1.80;;
4933;SDS011;2482;49.154;8.254;2023-05-20T00:15:38;7.23;;;2.20;;
4933;SDS011;2482;49.154;8.254;2023-05-20T00:18:06;5.50;;;2.27;;
4933;SDS011;2482;49.154;8.254;2023-05-20T00:20:33;3.53;;;1.90;;
4933;SDS011;2482;49.154;8.254;2023-05-20T00:23:00;2.97;;;2.07;;
4933;SDS011;2482;49.154;8.254;2023-05-20T00:25:27;2.90;;;2.10;;
4933;SDS011;2482;49.154;8.254;2023-05-20T00:27:58;4.00;;;2.47;;
4933;SDS011;2482;49.154;8.254;2023-05-20T00:30:25;3.47;;;2.10;;
4933;SDS011;2482;49.154;8.254;2023-05-20T00:32:52;1.90;;;1.73;;
4933;SDS011;2482;49.154;8.254;2023-05-20T00:35:19;3.30;;;1.90;;
4933;SDS011;2482;49.154;8.254;2023-05-20T00:37:46;4.20;;;2.50;;
4933;SDS011;2482;49.154;8.254;2023-05-20T00:40:13;3.17;;;2.33;;
4933;SDS011;2482;49.154;8.254;2023-05-20T00:42:41;4.90;;;2.47;;
4933;SDS011;2482;49.154;8.254;2023-05-20T00:45:08;3.50;;;2.37;;
4933;SDS011;2482;49.154;8.254;2023-05-20T00:47:36;2.50;;;1.90;;
4933;SDS011;2482;49.154;8.254;2023-05-20T00:50:04;2.23;;;2.00;;
4933;SDS011;2482;49.154;8.254;2023-05-20T00:52:32;3.03;;;1.87;;
4933;SDS011;2482;49.154;8.254;2023-05-20T00:55:00;2.43;;;1.90;;
4933;SDS011;2482;49.154;8.254;2023-05-20T00:57:27;4.20;;;2.07;;
4933;SDS011;2482;49.154;8.254;2023-05-20T00:59:54;5.17;;;2.10;;
4933;SDS011;2482;49.154;8.254;2023-05-20T01:02:22;7.13;;;2.70;;
4933;SDS011;2482;49.154;8.254;2023-05-20T01:04:49;5.53;;;2.70;;
4933;SDS011;2482;49.154;8.254;2023-05-20T01:07:17;3.10;;;1.90;;
4933;SDS011;2482;49.154;8.254;2023-05-20T01:09:45;3.73;;;2.80;;
4933;SDS011;2482;49.154;8.254;2023-05-20T01:12:25;5.20;;;2.20;;
4933;SDS011;2482;49.154;8.254;2023-05-20T01:15:04;3.37;;;2.80;;
4933;SDS011;2482;49.154;8.254;2023-05-20T01:17:45;2.53;;;2.20;;
4933;SDS011;2482;49.154;8.254;2023-05-20T01:20:13;2.30;;;2.10;;
4933;SDS011;2482;49.154;8.254;2023-05-20T01:22:47;7.37;;;2.60;;
4933;SDS011;2482;49.154;8.254;2023-05-20T01:25:22;3.67;;;2.30;;
4933;SDS011;2482;49.154;8.254;2023-05-20T01:27:55;3.87;;;2.67;;
4933;SDS011;2482;49.154;8.254;2023-05-20T01:30:25;5.23;;;2.53;;
4933;SDS011;2482;49.154;8.254;2023-05-20T01:33:11;5.50;;;2.60;;
4933;SDS011;2482;49.154;8.254;2023-05-20T01:35:40;3.20;;;2.23;;
4933;SDS011;2482;49.154;8.254;2023-05-20T01:38:08;2.63;;;2.43;;
4933;SDS011;2482;49.154;8.254;2023-05-20T01:40:35;4.50;;;2.10;;
4933;SDS011;2482;49.154;8.254;2023-05-20T01:43:03;4.00;;;2.00;;
4933;SDS011;2482;49.154;8.254;2023-05-20T01:45:31;3.20;;;2.33;;
4933;SDS011;2482;49.154;8.254;2023-05-20T01:47:59;3.53;;;2.30;;
4933;SDS011;2482;49.154;8.254;2023-05-20T01:50:28;2.23;;;2.03;;
4933;SDS011;2482;49.154;8.254;2023-05-20T01:52:55;6.13;;;2.83;;
4933;SDS011;2482;49.154;8.254;2023-05-20T01:55:22;4.23;;;2.33;;
4933;SDS011;2482;49.154;8.254;2023-05-20T01:57:50;6.50;;;2.27;;
4933;SDS011;2482;49.154;8.254;2023-05-20T02:00:17;3.00;;;2.20;;
4933;SDS011;2482;49.154;8.254;2023-05-20T02:02:44;2.80;;;2.50;;
4933;SDS011;2482;49.154;8.254;2023-05-20T02:05:11;4.33;;;2.70;;
4933;SDS011;2482;49.154;8.254;2023-05-20T02:07:38;2.93;;;2.40;;
4933;SDS011;2482;49.154;8.254;2023-05-20T02:10:05;7.33;;;2.87;;
4933;SDS011;2482;49.154;8.254;2023-05-20T02:12:33;2.83;;;2.20;;
4933;SDS011;2482;49.154;8.254;2023-05-20T02:15:00;5.90;;;2.47;;
4933;SDS011;2482;49.154;8.254;2023-05-20T02:17:27;6.70;;;2.43;;
4933;SDS011;2482;49.154;8.254;2023-05-20T02:19:54;2.80;;;2.20;;
4933;SDS011;2482;49.154;8.254;2023-05-20T02:22:21;12.77;;;3.13;;
4933;SDS011;2482;49.154;8.254;2023-05-20T02:24:48;4.33;;;2.97;;
4933;SDS011;2482;49.154;8.254;2023-05-20T02:27:15;2.50;;;2.27;;
4933;SDS011;2482;49.154;8.254;2023-05-20T02:29:42;5.13;;;2.73;;
4933;SDS011;2482;49.154;8.254;2023-05-20T02:32:09;3.20;;;2.90;;
4933;SDS011;2482;49.154;8.254;2023-05-20T02:34:37;6.73;;;2.50;;
4933;SDS011;2482;49.154;8.254;2023-05-20T02:37:04;3.73;;;2.77;;
4933;SDS011;2482;49.154;8.254;2023-05-20T02:39:32;4.77;;;2.70;;
4933;SDS011;2482;49.154;8.254;2023-05-20T02:41:58;5.40;;;2.37;;
4933;SDS011;2482;49.154;8.254;2023-05-20T02:44:25;4.37;;;2.70;;
4933;SDS011;2482;49.154;8.254;2023-05-20T02:46:52;4.20;;;3.20;;
4933;SDS011;2482;49.154;8.254;2023-05-20T02:49:19;6.90;;;3.30;;
4933;SDS011;2482;49.154;8.254;2023-05-20T02:51:46;5.17;;;3.00;;
4933;SDS011;2482;49.154;8.254;2023-05-20T02:54:13;4.47;;;3.07;;
4933;SDS011;2482;49.154;8.254;2023-05-20T02:56:40;7.70;;;3.20;;
4933;SDS011;2482;49.154;8.254;2023-05-20T02:59:08;3.50;;;3.20;;
4933;SDS011;2482;49.154;8.254;2023-05-20T03:01:35;6.93;;;2.80;;
4933;SDS011;2482;49.154;8.254;2023-05-20T03:04:02;5.90;;;2.83;;
4933;SDS011;2482;49.154;8.254;2023-05-20T03:06:29;4.20;;;2.67;;
4933;SDS011;2482;49.154;8.254;2023-05-20T03:08:59;3.80;;;2.70;;
4933;SDS011;2482;49.154;8.254;2023-05-20T03:11:26;3.80;;;3.20;;
4933;SDS011;2482;49.154;8.254;2023-05-20T03:13:53;5.07;;;3.60;;
4933;SDS011;2482;49.154;8.254;2023-05-20T03:16:20;9.33;;;3.07;;
4933;SDS011;2482;49.154;8.254;2023-05-20T03:18:48;4.43;;;2.93;;
4933;SDS011;2482;49.154;8.254;2023-05-20T03:21:15;5.43;;;2.93;;
4933;SDS011;2482;49.154;8.254;2023-05-20T03:23:42;7.03;;;3.07;;
4933;SDS011;2482;49.154;8.254;2023-05-20T03:26:09;5.77;;;3.07;;
4933;SDS011;2482;49.154;8.254;2023-05-20T03:28:36;5.10;;;3.20;;
4933;SDS011;2482;49.154;8.254;2023-05-20T03:31:03;8.10;;;3.30;;
4933;SDS011;2482;49.154;8.254;2023-05-20T03:33:33;6.73;;;3.40;;
4933;SDS011;2482;49.154;8.254;2023-05-20T03:36:00;3.60;;;3.00;;
4933;SDS011;2482;49.154;8.254;2023-05-20T03:38:27;5.53;;;3.20;;
4933;SDS011;2482;49.154;8.254;2023-05-20T03:40:54;3.43;;;3.13;;
4933;SDS011;2482;49.154;8.254;2023-05-20T03:43:21;3.13;;;2.40;;
4933;SDS011;2482;49.154;8.254;2023-05-20T03:45:48;5.20;;;3.07;;
4933;SDS011;2482;49.154;8.254;2023-05-20T03:48:15;5.20;;;3.17;;
4933;SDS011;2482;49.154;8.254;2023-05-20T03:50:42;4.87;;;3.20;;
4933;SDS011;2482;49.154;8.254;2023-05-20T03:53:09;4.30;;;3.20;;
4933;SDS011;2482;49.154;8.254;2023-05-20T03:55:36;7.70;;;2.77;;
4933;SDS011;2482;49.154;8.254;2023-05-20T03:58:04;8.27;;;3.20;;
4933;SDS011;2482;49.154;8.254;2023-05-20T04:00:31;4.90;;;3.00;;
4933;SDS011;2482;49.154;8.254;2023-05-20T04:02:58;4.07;;;3.00;;
4933;SDS011;2482;49.154;8.254;2023-05-20T04:05:26;4.00;;;3.13;;
4933;SDS011;2482;49.154;8.254;2023-05-20T04:07:53;3.90;;;3.20;;
4933;SDS011;2482;49.154;8.254;2023-05-20T04:10:20;4.80;;;3.90;;
4933;SDS011;2482;49.154;8.254;2023-05-20T04:12:48;4.50;;;3.43;;
4933;SDS011;2482;49.154;8.254;2023-05-20T04:15:15;2.80;;;2.60;;
4933;SDS011;2482;49.154;8.254;2023-05-20T04:17:42;4.40;;;3.20;;
4933;SDS011;2482;49.154;8.254;2023-05-20T04:20:13;9.50;;;3.23;;
4933;SDS011;2482;49.154;8.254;2023-05-20T04:22:41;4.03;;;3.20;;
4933;SDS011;2482;49.154;8.254;2023-05-20T04:25:08;5.17;;;3.13;;
4933;SDS011;2482;49.154;8.254;2023-05-20T04:27:35;3.60;;;3.03;;
4933;SDS011;2482;49.154;8.254;2023-05-20T04:30:05;3.20;;;2.87;;
4933;SDS011;2482;49.154;8.254;2023-05-20T04:32:33;3.20;;;2.87;;
4933;SDS011;2482;49.154;8.254;2023-05-20T04:35:00;4.53;;;3.20;;
4933;SDS011;2482;49.154;8.254;2023-05-20T04:37:27;4.57;;;3.10;;
4933;SDS011;2482;49.154;8.254;2023-05-20T04:39:54;4.00;;;2.97;;
4933;SDS011;2482;49.154;8.254;2023-05-20T04:42:21;3.97;;;3.00;;
4933;SDS011;2482;49.154;8.254;2023-05-20T04:44:48;7.57;;;3.17;;
4933;SDS011;2482;49.154;8.254;2023-05-20T04:47:15;4.77;;;3.20;;
4933;SDS011;2482;49.154;8.254;2023-05-20T04:49:42;3.97;;;3.17;;
4933;SDS011;2482;49.154;8.254;2023-05-20T04:52:11;4.00;;;3.40;;
4933;SDS011;2482;49.154;8.254;2023-05-20T04:54:38;3.60;;;2.87;;
4933;SDS011;2482;49.154;8.254;2023-05-20T04:57:05;4.40;;;3.60;;
4933;SDS011;2482;49.154;8.254;2023-05-20T04:59:32;4.83;;;3.70;;
4933;SDS011;2482;49.154;8.254;2023-05-20T05:01:59;3.70;;;3.40;;
4933;SDS011;2482;49.154;8.254;2023-05-20T05:04:26;11.13;;;3.77;;
4933;SDS011;2482;49.154;8.254;2023-05-20T05:06:53;3.20;;;3.00;;
4933;SDS011;2482;49.154;8.254;2023-05-20T05:09:20;4.27;;;3.23;;
4933;SDS011;2482;49.154;8.254;2023-05-20T05:11:47;3.70;;;3.40;;
4933;SDS011;2482;49.154;8.254;2023-05-20T05:14:14;3.77;;;3.03;;
4933;SDS011;2482;49.154;8.254;2023-05-20T05:16:42;5.97;;;3.43;;
4933;SDS011;2482;49.154;8.254;2023-05-20T05:19:09;6.23;;;3.60;;
4933;SDS011;2482;49.154;8.254;2023-05-20T05:21:36;5.37;;;3.63;;
4933;SDS011;2482;49.154;8.254;2023-05-20T05:24:03;3.93;;;3.53;;
4933;SDS011;2482;49.154;8.254;2023-05-20T05:26:30;3.77;;;3.00;;
4933;SDS011;2482;49.154;8.254;2023-05-20T05:28:58;4.53;;;3.80;;
4933;SDS011;2482;49.154;8.254;2023-05-20T05:31:24;7.57;;;4.00;;
4933;SDS011;2482;49.154;8.254;2023-05-20T05:33:52;9.13;;;3.10;;
4933;SDS011;2482;49.154;8.254;2023-05-20T05:36:18;5.00;;;3.80;;
4933;SDS011;2482;49.154;8.254;2023-05-20T05:38:45;3.80;;;3.23;;
4933;SDS011;2482;49.154;8.254;2023-05-20T05:41:12;4.60;;;3.43;;
4933;SDS011;2482;49.154;8.254;2023-05-20T05:43:40;7.80;;;3.40;;
4933;SDS011;2482;49.154;8.254;2023-05-20T05:46:07;3.93;;;3.60;;
4933;SDS011;2482;49.154;8.254;2023-05-20T05:48:35;3.40;;;3.10;;
4933;SDS011;2482;49.154;8.254;2023-05-20T05:51:03;4.07;;;2.93;;
4933;SDS011;2482;49.154;8.254;2023-05-20T05:53:30;5.00;;;3.93;;
4933;SDS011;2482;49.154;8.254;2023-05-20T05:55:57;4.00;;;3.13;;
4933;SDS011;2482;49.154;8.254;2023-05-20T05:58:24;5.13;;;3.73;;
4933;SDS011;2482;49.154;8.254;2023-05-20T06:00:51;4.03;;;3.63;;
4933;SDS011;2482;49.154;8.254;2023-05-20T06:03:20;5.17;;;3.70;;
4933;SDS011;2482;49.154;8.254;2023-05-20T06:05:47;4.93;;;3.60;;
4933;SDS011;2482;49.154;8.254;2023-05-20T06:08:14;3.60;;;3.27;;
4933;SDS011;2482;49.154;8.254;2023-05-20T06:10:45;6.17;;;3.63;;
4933;SDS011;2482;49.154;8.254;2023-05-20T06:13:16;5.03;;;3.80;;
4933;SDS011;2482;49.154;8.254;2023-05-20T06:15:43;4.10;;;3.67;;
4933;SDS011;2482;49.154;8.254;2023-05-20T06:18:11;6.57;;;4.27;;
4933;SDS011;2482;49.154;8.254;2023-05-20T06:20:38;8.07;;;3.80;;
4933;SDS011;2482;49.154;8.254;2023-05-20T06:23:06;12.20;;;4.07;;
4933;SDS011;2482;49.154;8.254;2023-05-20T06:25:33;5.33;;;3.93;;
4933;SDS011;2482;49.154;8.254;2023-05-20T06:28:00;8.83;;;5.17;;
4933;SDS011;2482;49.154;8.254;2023-05-20T06:30:27;8.23;;;3.90;;
4933;SDS011;2482;49.154;8.254;2023-05-20T06:32:54;6.57;;;3.73;;
4933;SDS011;2482;49.154;8.254;2023-05-20T06:35:21;4.63;;;3.70;;
4933;SDS011;2482;49.154;8.254;2023-05-20T06:37:48;3.97;;;3.57;;
4933;SDS011;2482;49.154;8.254;2023-05-20T06:40:15;4.37;;;3.97;;
4933;SDS011;2482;49.154;8.254;2023-05-20T06:42:42;4.37;;;3.97;;
4933;SDS011;2482;49.154;8.254;2023-05-20T06:45:10;5.03;;;3.97;;
4933;SDS011;2482;49.154;8.254;2023-05-20T06:47:37;5.03;;;3.90;;
4933;SDS011;2482;49.154;8.254;2023-05-20T06:50:04;4.10;;;3.70;;
4933;SDS011;2482;49.154;8.254;2023-05-20T06:52:31;5.27;;;4.10;;
4933;SDS011;2482;49.154;8.254;2023-05-20T06:54:58;5.63;;;3.80;;
4933;SDS011;2482;49.154;8.254;2023-05-20T06:57:25;7.13;;;4.00;;
4933;SDS011;2482;49.154;8.254;2023-05-20T06:59:52;5.13;;;3.50;;
4933;SDS011;2482;49.154;8.254;2023-05-20T07:02:20;4.63;;;3.40;;
4933;SDS011;2482;49.154;8.254;2023-05-20T07:04:48;5.73;;;4.10;;
4933;SDS011;2482;49.154;8.254;2023-05-20T07:07:15;5.10;;;4.30;;
4933;SDS011;2482;49.154;8.254;2023-05-20T07:09:43;5.57;;;4.50;;
4933;SDS011;2482;49.154;8.254;2023-05-20T07:12:10;7.57;;;4.40;;
4933;SDS011;2482;49.154;8.254;2023-05-20T07:14:37;5.73;;;4.37;;
4933;SDS011;2482;49.154;8.254;2023-05-20T07:17:04;4.83;;;3.70;;
4933;SDS011;2482;49.154;8.254;2023-05-20T07:19:32;4.77;;;4.20;;
4933;SDS011;2482;49.154;8.254;2023-05-20T07:21:59;6.20;;;4.50;;
4933;SDS011;2482;49.154;8.254;2023-05-20T07:24:26;5.50;;;4.13;;
4933;SDS011;2482;49.154;8.254;2023-05-20T07:26:53;7.70;;;4.07;;
4933;SDS011;2482;49.154;8.254;2023-05-20T07:29:20;5.20;;;4.10;;
4933;SDS011;2482;49.154;8.254;2023-05-20T07:31:47;5.87;;;4.30;;
4933;SDS011;2482;49.154;8.254;2023-05-20T07:34:15;4.30;;;3.87;;
4933;SDS011;2482;49.154;8.254;2023-05-20T07:36:42;5.10;;;4.47;;
4933;SDS011;2482;49.154;8.254;2023-05-20T07:39:10;5.37;;;4.03;;
4933;SDS011;2482;49.154;8.254;2023-05-20T07:41:40;6.27;;;4.43;;
4933;SDS011;2482;49.154;8.254;2023-05-20T07:44:07;4.60;;;4.20;;
4933;SDS011;2482;49.154;8.254;2023-05-20T07:46:36;6.30;;;4.80;;
4933;SDS011;2482;49.154;8.254;2023-05-20T07:49:04;6.63;;;4.80;;
4933;SDS011;2482;49.154;8.254;2023-05-20T07:51:31;5.73;;;4.07;;
4933;SDS011;2482;49.154;8.254;2023-05-20T07:53:58;8.27;;;5.03;;
4933;SDS011;2482;49.154;8.254;2023-05-20T07:56:25;4.90;;;4.40;;
4933;SDS011;2482;49.154;8.254;2023-05-20T07:58:53;8.00;;;4.47;;
4933;SDS011;2482;49.154;8.254;2023-05-20T08:01:23;6.27;;;4.90;;
4933;SDS011;2482;49.154;8.254;2023-05-20T08:03:52;5.50;;;4.90;;
4933;SDS011;2482;49.154;8.254;2023-05-20T08:06:20;8.53;;;4.70;;
4933;SDS011;2482;49.154;8.254;2023-05-20T08:08:49;8.77;;;5.60;;
4933;SDS011;2482;49.154;8.254;2023-05-20T08:11:16;6.13;;;4.63;;
4933;SDS011;2482;49.154;8.254;2023-05-20T08:13:43;5.67;;;4.90;;
4933;SDS011;2482;49.154;8.254;2023-05-20T08:16:11;6.50;;;4.30;;
4933;SDS011;2482;49.154;8.254;2023-05-20T08:18:38;11.37;;;4.57;;
4933;SDS011;2482;49.154;8.254;2023-05-20T08:21:05;5.77;;;4.93;;
4933;SDS011;2482;49.154;8.254;2023-05-20T08:23:35;7.10;;;4.57;;
4933;SDS011;2482;49.154;8.254;2023-05-20T08:26:05;5.77;;;4.60;;
4933;SDS011;2482;49.154;8.254;2023-05-20T08:28:32;7.00;;;4.63;;
4933;SDS011;2482;49.154;8.254;2023-05-20T08:31:02;8.50;;;5.40;;
4933;SDS011;2482;49.154;8.254;2023-05-20T08:33:30;5.50;;;4.70;;
4933;SDS011;2482;49.154;8.254;2023-05-20T08:35:57;10.10;;;5.00;;
4933;SDS011;2482;49.154;8.254;2023-05-20T08:38:24;6.23;;;5.17;;
4933;SDS011;2482;49.154;8.254;2023-05-20T08:40:52;7.80;;;5.53;;
4933;SDS011;2482;49.154;8.254;2023-05-20T08:43:21;7.80;;;5.70;;
4933;SDS011;2482;49.154;8.254;2023-05-20T08:45:49;7.93;;;5.97;;
4933;SDS011;2482;49.154;8.254;2023-05-20T08:48:21;6.40;;;5.33;;
4933;SDS011;2482;49.154;8.254;2023-05-20T08:50:51;6.13;;;5.53;;
4933;SDS011;2482;49.154;8.254;2023-05-20T08:53:21;6.03;;;4.40;;
4933;SDS011;2482;49.154;8.254;2023-05-20T08:55:52;6.10;;;4.70;;
4933;SDS011;2482;49.154;8.254;2023-05-20T08:58:26;7.53;;;4.63;;
4933;SDS011;2482;49.154;8.254;2023-05-20T09:00:55;7.50;;;5.27;;
4933;SDS011;2482;49.154;8.254;2023-05-20T09:03:24;6.30;;;5.20;;
4933;SDS011;2482;49.154;8.254;2023-05-20T09:05:51;6.13;;;5.23;;
4933;SDS011;2482;49.154;8.254;2023-05-20T09:08:23;6.13;;;5.13;;
4933;SDS011;2482;49.154;8.254;2023-05-20T09:10:53;7.03;;;5.00;;
4933;SDS011;2482;49.154;8.254;2023-05-20T09:13:20;9.63;;;4.87;;
4933;SDS011;2482;49.154;8.254;2023-05-20T09:15:49;5.93;;;4.70;;
4933;SDS011;2482;49.154;8.254;2023-05-20T09:18:16;8.70;;;5.10;;
4933;SDS011;2482;49.154;8.254;2023-05-20T09:20:45;8.77;;;5.10;;
4933;SDS011;2482;49.154;8.254;2023-05-20T09:23:14;6.77;;;4.37;;
4933;SDS011;2482;49.154;8.254;2023-05-20T09:25:41;9.00;;;5.00;;
4933;SDS011;2482;49.154;8.254;2023-05-20T09:28:08;8.97;;;5.10;;
4933;SDS011;2482;49.154;8.254;2023-05-20T09:30:37;6.50;;;4.97;;
4933;SDS011;2482;49.154;8.254;2023-05-20T09:33:04;5.57;;;4.47;;
4933;SDS011;2482;49.154;8.254;2023-05-20T09:35:35;5.53;;;5.03;;
4933;SDS011;2482;49.154;8.254;2023-05-20T09:38:03;7.30;;;5.03;;
4933;SDS011;2482;49.154;8.254;2023-05-20T09:40:35;6.53;;;4.60;;
4933;SDS011;2482;49.154;8.254;2023-05-20T09:43:06;8.30;;;4.47;;
4933;SDS011;2482;49.154;8.254;2023-05-20T09:45:34;6.30;;;4.80;;
4933;SDS011;2482;49.154;8.254;2023-05-20T09:48:01;5.53;;;4.47;;
4933;SDS011;2482;49.154;8.254;2023-05-20T09:50:31;5.20;;;4.70;;
4933;SDS011;2482;49.154;8.254;2023-05-20T09:53:00;5.40;;;4.90;;
4933;SDS011;2482;49.154;8.254;2023-05-20T09:55:29;5.53;;;5.03;;
4933;SDS011;2482;49.154;8.254;2023-05-20T09:57:58;5.90;;;4.57;;
4933;SDS011;2482;49.154;8.254;2023-05-20T10:00:28;10.43;;;5.53;;
4933;SDS011;2482;49.154;8.254;2023-05-20T10:02:56;5.90;;;4.97;;
4933;SDS011;2482;49.154;8.254;2023-05-20T10:05:31;5.50;;;4.47;;
4933;SDS011;2482;49.154;8.254;2023-05-20T10:17:03;5.17;;;4.67;;
4933;SDS011;2482;49.154;8.254;2023-05-20T10:19:37;6.60;;;5.13;;
4933;SDS011;2482;49.154;8.254;2023-05-20T10:22:08;5.37;;;4.80;;
4933;SDS011;2482;49.154;8.254;2023-05-20T10:24:40;6.70;;;4.90;;
4933;SDS011;2482;49.154;8.254;2023-05-20T10:27:10;6.90;;;4.70;;
4933;SDS011;2482;49.154;8.254;2023-05-20T10:29:43;9.07;;;5.40;;
4933;SDS011;2482;49.154;8.254;2023-05-20T10:32:27;6.80;;;5.70;;
4933;SDS011;2482;49.154;8.254;2023-05-20T10:35:03;5.37;;;4.37;;
4933;SDS011;2482;49.154;8.254;2023-05-20T10:37:42;6.20;;;4.63;;
4933;SDS011;2482;49.154;8.254;2023-05-20T10:40:12;5.60;;;4.80;;
4933;SDS011;2482;49.154;8.254;2023-05-20T10:42:41;7.53;;;5.40;;
4933;SDS011;2482;49.154;8.254;2023-05-20T10:45:09;4.93;;;4.40;;
4933;SDS011;2482;49.154;8.254;2023-05-20T10:47:40;7.73;;;5.07;;
4933;SDS011;2482;49.154;8.254;2023-05-20T10:50:34;6.00;;;4.47;;
4933;SDS011;2482;49.154;8.254;2023-05-20T10:53:03;6.83;;;4.97;;
4933;SDS011;2482;49.154;8.254;2023-05-20T10:55:38;5.57;;;5.07;;
4933;SDS011;2482;49.154;8.254;2023-05-20T10:58:06;6.17;;;4.77;;
4933;SDS011;2482;49.154;8.254;2023-05-20T11:00:35;5.67;;;4.77;;
4933;SDS011;2482;49.154;8.254;2023-05-20T11:03:03;6.33;;;5.37;;
4933;SDS011;2482;49.154;8.254;2023-05-20T11:05:32;5.53;;;4.33;;
4933;SDS011;2482;49.154;8.254;2023-05-20T11:08:00;22.30;;;5.53;;
4933;SDS011;2482;49.154;8.254;2023-05-20T11:10:36;4.70;;;4.30;;
4933;SDS011;2482;49.154;8.254;2023-05-20T11:13:03;5.50;;;4.73;;
4933;SDS011;2482;49.154;8.254;2023-05-20T11:15:30;5.30;;;4.80;;
4933;SDS011;2482;49.154;8.254;2023-05-20T11:18:00;6.90;;;4.60;;
4933;SDS011;2482;49.154;8.254;2023-05-20T11:20:30;5.97;;;5.30;;
4933;SDS011;2482;49.154;8.254;2023-05-20T11:23:01;6.23;;;4.40;;
4933;SDS011;2482;49.154;8.254;2023-05-20T11:25:30;5.90;;;4.97;;
4933;SDS011;2482;49.154;8.254;2023-05-20T11:27:58;4.43;;;4.03;;
4933;SDS011;2482;49.154;8.254;2023-05-20T11:30:25;5.20;;;4.70;;
4933;SDS011;2482;49.154;8.254;2023-05-20T11:32:59;5.33;;;4.27;;
4933;SDS011;2482;49.154;8.254;2023-05-20T11:35:30;5.50;;;4.10;;
4933;SDS011;2482;49.154;8.254;2023-05-20T11:38:05;8.00;;;4.80;;
4933;SDS011;2482;49.154;8.254;2023-05-20T11:40:34;5.30;;;4.60;;
4933;SDS011;2482;49.154;8.254;2023-05-20T11:43:16;6.80;;;4.80;;
4933;SDS011;2482;49.154;8.254;2023-05-20T11:45:44;5.47;;;4.97;;
4933;SDS011;2482;49.154;8.254;2023-05-20T11:48:13;5.30;;;4.80;;
4933;SDS011;2482;49.154;8.254;2023-05-20T11:50:44;7.40;;;4.73;;
4933;SDS011;2482;49.154;8.254;2023-05-20T11:53:17;4.77;;;4.07;;
4933;SDS011;2482;49.154;8.254;2023-05-20T11:55:53;5.50;;;4.13;;
4933;SDS011;2482;49.154;8.254;2023-05-20T11:58:26;5.47;;;4.40;;
4933;SDS011;2482;49.154;8.254;2023-05-20T12:00:55;5.30;;;4.80;;
4933;SDS011;2482;49.154;8.254;2023-05-20T12:03:43;6.03;;;5.43;;
4933;SDS011;2482;49.154;8.254;2023-05-20T12:06:10;6.00;;;4.07;;
4933;SDS011;2482;49.154;8.254;2023-05-20T12:08:38;5.07;;;4.53;;
4933;SDS011;2482;49.154;8.254;2023-05-20T12:11:05;5.10;;;4.03;;
4933;SDS011;2482;49.154;8.254;2023-05-20T12:13:32;5.00;;;4.50;;
4933;SDS011;2482;49.154;8.254;2023-05-20T12:16:01;4.20;;;3.80;;
4933;SDS011;2482;49.154;8.254;2023-05-20T12:18:29;5.90;;;4.90;;
4933;SDS011;2482;49.154;8.254;2023-05-20T12:20:57;4.73;;;4.27;;
4933;SDS011;2482;49.154;8.254;2023-05-20T12:23:26;4.60;;;4.20;;
4933;SDS011;2482;49.154;8.254;2023-05-20T12:25:54;4.70;;;4.17;;
4933;SDS011;2482;49.154;8.254;2023-05-20T12:28:21;4.30;;;3.63;;
4933;SDS011;2482;49.154;8.254;2023-05-20T12:30:48;4.60;;;4.20;;
4933;SDS011;2482;49.154;8.254;2023-05-20T12:33:15;4.17;;;3.77;;
4933;SDS011;2482;49.154;8.254;2023-05-20T12:35:42;10.83;;;4.70;;
4933;SDS011;2482;49.154;8.254;2023-05-20T12:38:11;6.40;;;4.97;;
4933;SDS011;2482;49.154;8.254;2023-05-20T12:40:38;4.47;;;3.93;;
4933;SDS011;2482;49.154;8.254;2023-05-20T12:43:05;6.03;;;5.03;;
4933;SDS011;2482;49.154;8.254;2023-05-20T12:45:32;5.33;;;4.83;;
4933;SDS011;2482;49.154;8.254;2023-05-20T12:47:59;6.47;;;5.60;;
4933;SDS011;2482;49.154;8.254;2023-05-20T12:50:27;5.30;;;4.80;;
4933;SDS011;2482;49.154;8.254;2023-05-20T12:52:54;7.00;;;4.87;;
4933;SDS011;2482;49.154;8.254;2023-05-20T12:55:21;5.83;;;4.40;;
4933;SDS011;2482;49.154;8.254;2023-05-20T12:57:48;4.87;;;4.47;;
4933;SDS011;2482;49.154;8.254;2023-05-20T13:00:16;6.50;;;5.00;;
4933;SDS011;2482;49.154;8.254;2023-05-20T13:02:43;7.73;;;5.30;;
4933;SDS011;2482;49.154;8.254;2023-05-20T13:05:10;11.33;;;4.53;;
4933;SDS011;2482;49.154;8.254;2023-05-20T13:07:38;4.93;;;4.20;;
4933;SDS011;2482;49.154;8.254;2023-05-20T13:10:06;5.10;;;4.70;;
4933;SDS011;2482;49.154;8.254;2023-05-20T13:12:33;5.10;;;4.60;;
4933;SDS011;2482;49.154;8.254;2023-05-20T13:15:01;6.33;;;4.87;;
4933;SDS011;2482;49.154;8.254;2023-05-20T13:17:30;5.40;;;4.90;;
4933;SDS011;2482;49.154;8.254;2023-05-20T13:19:57;7.43;;;5.00;;
4933;SDS011;2482;49.154;8.254;2023-05-20T13:22:24;6.33;;;4.93;;
4933;SDS011;2482;49.154;8.254;2023-05-20T13:24:51;4.80;;;4.40;;
4933;SDS011;2482;49.154;8.254;2023-05-20T13:27:18;5.83;;;4.90;;
4933;SDS011;2482;49.154;8.254;2023-05-20T13:29:45;5.43;;;4.93;;
4933;SDS011;2482;49.154;8.254;2023-05-20T13:32:12;5.20;;;4.70;;
4933;SDS011;2482;49.154;8.254;2023-05-20T13:34:39;5.50;;;4.60;;
4933;SDS011;2482;49.154;8.254;2023-05-20T13:37:07;8.50;;;4.87;;
4933;SDS011;2482;49.154;8.254;2023-05-20T13:39:34;5.83;;;5.23;;
4933;SDS011;2482;49.154;8.254;2023-05-20T13:42:01;5.70;;;4.47;;
4933;SDS011;2482;49.154;8.254;2023-05-20T13:44:29;5.17;;;4.77;;
4933;SDS011;2482;49.154;8.254;2023-05-20T13:46:58;6.30;;;4.73;;
4933;SDS011;2482;49.154;8.254;2023-05-20T13:49:25;5.70;;;4.23;;
4933;SDS011;2482;49.154;8.254;2023-05-20T13:51:52;6.87;;;5.00;;
4933;SDS011;2482;49.154;8.254;2023-05-20T13:54:19;6.23;;;4.73;;
4933;SDS011;2482;49.154;8.254;2023-05-20T13:56:47;8.57;;;4.97;;
4933;SDS011;2482;49.154;8.254;2023-05-20T13:59:14;6.67;;;4.70;;
4933;SDS011;2482;49.154;8.254;2023-05-20T14:01:41;7.20;;;5.23;;
4933;SDS011;2482;49.154;8.254;2023-05-20T14:04:11;5.07;;;4.37;;
4933;SDS011;2482;49.154;8.254;2023-05-20T14:06:38;5.50;;;4.70;;
4933;SDS011;2482;49.154;8.254;2023-05-20T14:09:06;5.43;;;4.90;;
4933;SDS011;2482;49.154;8.254;2023-05-20T14:11:34;6.57;;;4.90;;
4933;SDS011;2482;49.154;8.254;2023-05-20T14:14:02;5.97;;;5.43;;
4933;SDS011;2482;49.154;8.254;2023-05-20T14:16:29;5.10;;;4.60;;
4933;SDS011;2482;49.154;8.254;2023-05-20T14:18:58;8.07;;;5.33;;
4933;SDS011;2482;49.154;8.254;2023-05-20T14:21:25;8.83;;;5.33;;
4933;SDS011;2482;49.154;8.254;2023-05-20T14:23:52;4.80;;;4.37;;
4933;SDS011;2482;49.154;8.254;2023-05-20T14:26:19;5.30;;;4.80;;
4933;SDS011;2482;49.154;8.254;2023-05-20T14:28:47;7.00;;;4.80;;
4933;SDS011;2482;49.154;8.254;2023-05-20T14:31:14;6.30;;;5.30;;
4933;SDS011;2482;49.154;8.254;2023-05-20T14:33:41;5.87;;;5.23;;
4933;SDS011;2482;49.154;8.254;2023-05-20T14:36:09;7.60;;;5.03;;
4933;SDS011;2482;49.154;8.254;2023-05-20T14:38:36;5.30;;;4.80;;
4933;SDS011;2482;49.154;8.254;2023-05-20T14:41:03;9.40;;;4.60;;
4933;SDS011;2482;49.154;8.254;2023-05-20T14:43:31;5.40;;;4.97;;
4933;SDS011;2482;49.154;8.254;2023-05-20T14:45:58;5.90;;;5.30;;
4933;SDS011;2482;49.154;8.254;2023-05-20T14:48:25;7.07;;;4.87;;
4933;SDS011;2482;49.154;8.254;2023-05-20T14:50:52;7.77;;;5.00;;
4933;SDS011;2482;49.154;8.254;2023-05-20T14:53:21;6.13;;;5.53;;
4933;SDS011;2482;49.154;8.254;2023-05-20T14:55:51;8.07;;;5.23;;
4933;SDS011;2482;49.154;8.254;2023-05-20T14:58:18;6.00;;;5.20;;
4933;SDS011;2482;49.154;8.254;2023-05-20T15:00:45;11.10;;;5.40;;
4933;SDS011;2482;49.154;8.254;2023-05-20T15:03:12;5.87;;;5.07;;
4933;SDS011;2482;49.154;8.254;2023-05-20T15:05:40;5.23;;;4.83;;
4933;SDS011;2482;49.154;8.254;2023-05-20T15:08:07;5.83;;;5.33;;
4933;SDS011;2482;49.154;8.254;2023-05-20T15:10:34;5.40;;;4.90;;
4933;SDS011;2482;49.154;8.254;2023-05-20T15:13:02;7.37;;;4.57;;
4933;SDS011;2482;49.154;8.254;2023-05-20T15:15:31;6.23;;;5.03;;
4933;SDS011;2482;49.154;8.254;2023-05-20T15:17:59;5.43;;;4.93;;
4933;SDS011;2482;49.154;8.254;2023-05-20T15:20:26;6.30;;;5.60;;
4933;SDS011;2482;49.154;8.254;2023-05-20T15:22:53;7.13;;;5.13;;
4933;SDS011;2482;49.154;8.254;2023-05-20T15:25:21;6.13;;;5.53;;
4933;SDS011;2482;49.154;8.254;2023-05-20T15:27:48;6.20;;;5.30;;
4933;SDS011;2482;49.154;8.254;2023-05-20T15:30:15;5.93;;;5.23;;